sensor_id;sensor_type;location;lat;lon;timestamp;P1;durP1;ratioP1;P2;durP2;ratioP2
71108;SDS011;59614;51.012;-1.648;2023-07-20T00:02:13;6.90;;;2.95;;
71108;SDS011;59614;51.012;-1.648;2023-07-20T00:04:39;9.13;;;3.00;;
71108;SDS011;59614;51.012;-1.648;2023-07-20T00:07:04;6.38;;;3.20;;
71108;SDS011;59614;51.012;-1.648;2023-07-20T00:09:30;6.65;;;2.53;;
71108;SDS011;59614;51.012;-1.648;2023-07-20T00:11:56;7.85;;;3.00;;
71108;SDS011;59614;51.012;-1.648;2023-07-20T00:14:21;6.28;;;2.80;;
71108;SDS011;59614;51.012;-1.648;2023-07-20T00:16:47;7.22;;;3.03;;
71108;SDS011;59614;51.012;-1.648;2023-07-20T00:19:20;8.13;;;3.17;;
71108;SDS011;59614;51.012;-1.648;2023-07-20T00:21:46;10.00;;;2.97;;
71108;SDS011;59614;51.012;-1.648;2023-07-20T00:24:12;7.03;;;3.00;;
71108;SDS011;59614;51.012;-1.648;2023-07-20T00:26:37;8.60;;;2.70;;
71108;SDS011;59614;51.012;-1.648;2023-07-20T00:29:03;9.98;;;3.13;;
71108;SDS011;59614;51.012;-1.648;2023-07-20T00:31:29;9.57;;;2.65;;
71108;SDS011;59614;51.012;-1.648;2023-07-20T00:33:54;6.82;;;2.90;;
71108;SDS011;59614;51.012;-1.648;2023-07-20T00:36:20;11.73;;;3.75;;
71108;SDS011;59614;51.012;-1.648;2023-07-20T00:38:45;7.47;;;3.13;;
71108;SDS011;59614;51.012;-1.648;2023-07-20T00:41:11;8.00;;;2.97;;
71108;SDS011;59614;51.012;-1.648;2023-07-20T00:43:38;4.07;;;2.67;;
71108;SDS011;59614;51.012;-1.648;2023-07-20T00:46:03;7.88;;;2.95;;
71108;SDS011;59614;51.012;-1.648;2023-07-20T00:48:30;7.65;;;2.80;;
71108;SDS011;59614;51.012;-1.648;2023-07-20T00:50:57;8.63;;;2.85;;
71108;SDS011;59614;51.012;-1.648;2023-07-20T00:53:24;7.53;;;3.05;;
71108;SDS011;59614;51.012;-1.648;2023-07-20T00:55:49;5.95;;;2.90;;
71108;SDS011;59614;51.012;-1.648;2023-07-20T00:58:14;7.03;;;2.72;;
71108;SDS011;59614;51.012;-1.648;2023-07-20T01:00:40;4.75;;;2.72;;
71108;SDS011;59614;51.012;-1.648;2023-07-20T01:03:05;11.00;;;2.97;;
71108;SDS011;59614;51.012;-1.648;2023-07-20T01:05:36;7.05;;;2.92;;
71108;SDS011;59614;51.012;-1.648;2023-07-20T01:08:08;4.95;;;2.65;;
71108;SDS011;59614;51.012;-1.648;2023-07-20T01:10:44;6.20;;;2.70;;
71108;SDS011;59614;51.012;-1.648;2023-07-20T01:13:16;4.95;;;3.00;;
71108;SDS011;59614;51.012;-1.648;2023-07-20T01:15:48;9.40;;;3.03;;
71108;SDS011;59614;51.012;-1.648;2023-07-20T01:18:14;5.40;;;2.75;;
71108;SDS011;59614;51.012;-1.648;2023-07-20T01:20:39;5.72;;;2.65;;
71108;SDS011;59614;51.012;-1.648;2023-07-20T01:33:50;5.35;;;2.60;;
71108;SDS011;59614;51.012;-1.648;2023-07-20T01:36:19;6.15;;;2.90;;
71108;SDS011;59614;51.012;-1.648;2023-07-20T01:38:46;5.18;;;2.70;;
71108;SDS011;59614;51.012;-1.648;2023-07-20T01:41:12;5.38;;;2.70;;
71108;SDS011;59614;51.012;-1.648;2023-07-20T01:43:39;5.32;;;2.80;;
71108;SDS011;59614;51.012;-1.648;2023-07-20T01:46:04;6.13;;;2.80;;
71108;SDS011;59614;51.012;-1.648;2023-07-20T01:48:30;6.85;;;2.70;;
71108;SDS011;59614;51.012;-1.648;2023-07-20T01:50:56;6.25;;;2.60;;
71108;SDS011;59614;51.012;-1.648;2023-07-20T01:53:22;7.45;;;2.75;;
71108;SDS011;59614;51.012;-1.648;2023-07-20T01:55:47;5.82;;;2.90;;
71108;SDS011;59614;51.012;-1.648;2023-07-20T01:58:13;6.43;;;2.72;;
71108;SDS011;59614;51.012;-1.648;2023-07-20T02:00:38;5.75;;;2.90;;
71108;SDS011;59614;51.012;-1.648;2023-07-20T02:03:04;7.45;;;2.67;;
71108;SDS011;59614;51.012;-1.648;2023-07-20T02:05:29;4.55;;;2.83;;
71108;SDS011;59614;51.012;-1.648;2023-07-20T02:07:55;7.30;;;3.05;;
71108;SDS011;59614;51.012;-1.648;2023-07-20T02:10:20;6.03;;;2.90;;
71108;SDS011;59614;51.012;-1.648;2023-07-20T02:12:46;8.95;;;3.20;;
71108;SDS011;59614;51.012;-1.648;2023-07-20T02:15:12;5.70;;;2.78;;
71108;SDS011;59614;51.012;-1.648;2023-07-20T02:17:38;5.50;;;2.90;;
71108;SDS011;59614;51.012;-1.648;2023-07-20T02:20:06;5.38;;;2.83;;
71108;SDS011;59614;51.012;-1.648;2023-07-20T02:22:34;5.90;;;2.72;;
71108;SDS011;59614;51.012;-1.648;2023-07-20T02:24:59;4.47;;;2.90;;
71108;SDS011;59614;51.012;-1.648;2023-07-20T02:27:25;5.03;;;2.55;;
71108;SDS011;59614;51.012;-1.648;2023-07-20T02:29:50;5.85;;;2.90;;
71108;SDS011;59614;51.012;-1.648;2023-07-20T02:32:16;6.50;;;2.85;;
71108;SDS011;59614;51.012;-1.648;2023-07-20T02:34:41;7.97;;;3.13;;
71108;SDS011;59614;51.012;-1.648;2023-07-20T02:37:06;7.20;;;2.60;;
71108;SDS011;59614;51.012;-1.648;2023-07-20T02:39:32;8.13;;;3.00;;
71108;SDS011;59614;51.012;-1.648;2023-07-20T02:41:57;5.97;;;2.88;;
71108;SDS011;59614;51.012;-1.648;2023-07-20T02:44:23;5.68;;;3.00;;
71108;SDS011;59614;51.012;-1.648;2023-07-20T02:46:48;7.20;;;2.60;;
71108;SDS011;59614;51.012;-1.648;2023-07-20T02:49:17;4.15;;;2.63;;
71108;SDS011;59614;51.012;-1.648;2023-07-20T02:51:42;5.95;;;2.70;;
71108;SDS011;59614;51.012;-1.648;2023-07-20T02:54:08;4.88;;;2.58;;
71108;SDS011;59614;51.012;-1.648;2023-07-20T02:56:33;3.95;;;2.55;;
71108;SDS011;59614;51.012;-1.648;2023-07-20T02:59:00;6.15;;;2.83;;
71108;SDS011;59614;51.012;-1.648;2023-07-20T03:01:26;6.88;;;2.83;;
71108;SDS011;59614;51.012;-1.648;2023-07-20T03:03:54;7.30;;;2.95;;
71108;SDS011;59614;51.012;-1.648;2023-07-20T03:06:20;9.18;;;2.70;;
71108;SDS011;59614;51.012;-1.648;2023-07-20T03:08:45;6.68;;;2.55;;
71108;SDS011;59614;51.012;-1.648;2023-07-20T03:13:40;4.22;;;2.60;;
71108;SDS011;59614;51.012;-1.648;2023-07-20T03:16:06;3.78;;;2.58;;
71108;SDS011;59614;51.012;-1.648;2023-07-20T03:18:36;6.20;;;2.60;;
71108;SDS011;59614;51.012;-1.648;2023-07-20T03:21:02;4.85;;;2.70;;
71108;SDS011;59614;51.012;-1.648;2023-07-20T03:23:27;5.70;;;2.78;;
71108;SDS011;59614;51.012;-1.648;2023-07-20T03:25:53;4.75;;;2.60;;
71108;SDS011;59614;51.012;-1.648;2023-07-20T03:28:20;7.40;;;2.80;;
71108;SDS011;59614;51.012;-1.648;2023-07-20T03:30:45;5.05;;;2.72;;
71108;SDS011;59614;51.012;-1.648;2023-07-20T03:33:11;4.93;;;2.60;;
71108;SDS011;59614;51.012;-1.648;2023-07-20T03:35:37;3.80;;;2.55;;
71108;SDS011;59614;51.012;-1.648;2023-07-20T03:38:02;6.60;;;2.60;;
71108;SDS011;59614;51.012;-1.648;2023-07-20T03:40:29;8.55;;;2.90;;
71108;SDS011;59614;51.012;-1.648;2023-07-20T03:42:54;4.60;;;2.67;;
71108;SDS011;59614;51.012;-1.648;2023-07-20T03:45:20;5.32;;;2.88;;
71108;SDS011;59614;51.012;-1.648;2023-07-20T03:47:49;4.70;;;2.78;;
71108;SDS011;59614;51.012;-1.648;2023-07-20T03:50:14;6.78;;;2.50;;
71108;SDS011;59614;51.012;-1.648;2023-07-20T03:52:40;5.07;;;2.60;;
71108;SDS011;59614;51.012;-1.648;2023-07-20T03:55:05;3.80;;;2.55;;
71108;SDS011;59614;51.012;-1.648;2023-07-20T03:57:31;5.30;;;3.10;;
71108;SDS011;59614;51.012;-1.648;2023-07-20T03:59:58;5.13;;;2.50;;
71108;SDS011;59614;51.012;-1.648;2023-07-20T04:02:24;8.60;;;3.47;;
71108;SDS011;59614;51.012;-1.648;2023-07-20T04:04:50;7.60;;;2.45;;
71108;SDS011;59614;51.012;-1.648;2023-07-20T04:07:16;5.32;;;2.58;;
71108;SDS011;59614;51.012;-1.648;2023-07-20T04:09:41;7.07;;;2.70;;
71108;SDS011;59614;51.012;-1.648;2023-07-20T04:12:07;5.80;;;2.65;;
71108;SDS011;59614;51.012;-1.648;2023-07-20T04:14:32;5.93;;;3.00;;
71108;SDS011;59614;51.012;-1.648;2023-07-20T04:16:58;4.80;;;2.63;;
71108;SDS011;59614;51.012;-1.648;2023-07-20T04:19:25;6.45;;;2.80;;
71108;SDS011;59614;51.012;-1.648;2023-07-20T04:21:50;6.38;;;2.85;;
71108;SDS011;59614;51.012;-1.648;2023-07-20T04:24:16;4.97;;;3.00;;
71108;SDS011;59614;51.012;-1.648;2023-07-20T04:26:41;5.78;;;2.60;;
71108;SDS011;59614;51.012;-1.648;2023-07-20T04:29:07;9.38;;;2.97;;
71108;SDS011;59614;51.012;-1.648;2023-07-20T04:31:33;7.13;;;3.00;;
71108;SDS011;59614;51.012;-1.648;2023-07-20T04:33:59;6.70;;;2.90;;
71108;SDS011;59614;51.012;-1.648;2023-07-20T04:36:24;5.22;;;2.33;;
71108;SDS011;59614;51.012;-1.648;2023-07-20T04:38:50;5.13;;;2.80;;
71108;SDS011;59614;51.012;-1.648;2023-07-20T04:41:15;5.40;;;2.50;;
71108;SDS011;59614;51.012;-1.648;2023-07-20T04:43:43;5.78;;;2.90;;
71108;SDS011;59614;51.012;-1.648;2023-07-20T04:46:12;4.68;;;2.50;;
71108;SDS011;59614;51.012;-1.648;2023-07-20T04:48:38;5.50;;;2.75;;
71108;SDS011;59614;51.012;-1.648;2023-07-20T04:51:05;5.60;;;2.67;;
71108;SDS011;59614;51.012;-1.648;2023-07-20T04:53:31;7.10;;;2.60;;
71108;SDS011;59614;51.012;-1.648;2023-07-20T04:55:56;5.68;;;2.90;;
71108;SDS011;59614;51.012;-1.648;2023-07-20T04:58:22;4.43;;;2.53;;
71108;SDS011;59614;51.012;-1.648;2023-07-20T05:00:48;7.93;;;3.20;;
71108;SDS011;59614;51.012;-1.648;2023-07-20T05:03:14;4.30;;;2.65;;
71108;SDS011;59614;51.012;-1.648;2023-07-20T05:05:39;5.43;;;2.72;;
71108;SDS011;59614;51.012;-1.648;2023-07-20T05:08:05;4.95;;;2.70;;
71108;SDS011;59614;51.012;-1.648;2023-07-20T05:10:30;6.88;;;2.97;;
71108;SDS011;59614;51.012;-1.648;2023-07-20T05:12:57;4.45;;;2.80;;
71108;SDS011;59614;51.012;-1.648;2023-07-20T05:15:23;8.00;;;2.67;;
71108;SDS011;59614;51.012;-1.648;2023-07-20T05:17:48;6.65;;;2.72;;
71108;SDS011;59614;51.012;-1.648;2023-07-20T05:20:14;5.55;;;2.60;;
71108;SDS011;59614;51.012;-1.648;2023-07-20T05:22:39;4.15;;;2.60;;
71108;SDS011;59614;51.012;-1.648;2023-07-20T05:25:07;6.47;;;2.70;;
71108;SDS011;59614;51.012;-1.648;2023-07-20T05:27:34;6.20;;;2.50;;
71108;SDS011;59614;51.012;-1.648;2023-07-20T05:30:01;5.13;;;2.88;;
71108;SDS011;59614;51.012;-1.648;2023-07-20T05:32:27;5.25;;;2.80;;
71108;SDS011;59614;51.012;-1.648;2023-07-20T05:34:53;6.65;;;2.85;;
71108;SDS011;59614;51.012;-1.648;2023-07-20T05:37:19;5.30;;;2.85;;
71108;SDS011;59614;51.012;-1.648;2023-07-20T05:39:45;5.35;;;2.80;;
71108;SDS011;59614;51.012;-1.648;2023-07-20T05:42:10;6.50;;;2.40;;
71108;SDS011;59614;51.012;-1.648;2023-07-20T05:44:36;3.70;;;2.30;;
71108;SDS011;59614;51.012;-1.648;2023-07-20T05:47:01;4.95;;;2.50;;
71108;SDS011;59614;51.012;-1.648;2023-07-20T05:49:27;3.58;;;2.40;;
71108;SDS011;59614;51.012;-1.648;2023-07-20T05:51:54;6.53;;;2.65;;
71108;SDS011;59614;51.012;-1.648;2023-07-20T05:54:20;8.35;;;3.85;;
71108;SDS011;59614;51.012;-1.648;2023-07-20T05:56:46;4.65;;;2.60;;
71108;SDS011;59614;51.012;-1.648;2023-07-20T05:59:12;4.05;;;2.33;;
71108;SDS011;59614;51.012;-1.648;2023-07-20T06:01:37;6.60;;;2.70;;
71108;SDS011;59614;51.012;-1.648;2023-07-20T06:04:03;4.22;;;2.33;;
71108;SDS011;59614;51.012;-1.648;2023-07-20T06:06:28;4.70;;;2.55;;
71108;SDS011;59614;51.012;-1.648;2023-07-20T06:08:54;4.72;;;2.58;;
71108;SDS011;59614;51.012;-1.648;2023-07-20T06:11:19;4.18;;;2.60;;
71108;SDS011;59614;51.012;-1.648;2023-07-20T06:13:45;6.40;;;2.67;;
71108;SDS011;59614;51.012;-1.648;2023-07-20T06:16:10;4.38;;;2.40;;
71108;SDS011;59614;51.012;-1.648;2023-07-20T06:18:36;5.97;;;2.50;;
71108;SDS011;59614;51.012;-1.648;2023-07-20T06:21:01;7.30;;;2.40;;
71108;SDS011;59614;51.012;-1.648;2023-07-20T06:23:27;4.45;;;2.53;;
71108;SDS011;59614;51.012;-1.648;2023-07-20T06:25:53;5.25;;;2.53;;
71108;SDS011;59614;51.012;-1.648;2023-07-20T06:28:18;4.10;;;2.40;;
71108;SDS011;59614;51.012;-1.648;2023-07-20T06:30:44;5.80;;;2.20;;
71108;SDS011;59614;51.012;-1.648;2023-07-20T06:33:09;5.45;;;2.38;;
71108;SDS011;59614;51.012;-1.648;2023-07-20T06:35:34;5.85;;;2.47;;
71108;SDS011;59614;51.012;-1.648;2023-07-20T06:38:01;4.88;;;2.70;;
71108;SDS011;59614;51.012;-1.648;2023-07-20T06:40:28;5.47;;;2.50;;
71108;SDS011;59614;51.012;-1.648;2023-07-20T06:42:53;6.78;;;2.60;;
71108;SDS011;59614;51.012;-1.648;2023-07-20T06:45:19;4.50;;;2.42;;
71108;SDS011;59614;51.012;-1.648;2023-07-20T06:47:44;8.27;;;3.83;;
71108;SDS011;59614;51.012;-1.648;2023-07-20T06:50:09;6.78;;;2.53;;
71108;SDS011;59614;51.012;-1.648;2023-07-20T06:52:36;5.13;;;2.60;;
71108;SDS011;59614;51.012;-1.648;2023-07-20T06:55:02;8.77;;;2.50;;
71108;SDS011;59614;51.012;-1.648;2023-07-20T06:57:27;4.22;;;2.40;;
71108;SDS011;59614;51.012;-1.648;2023-07-20T06:59:53;5.10;;;2.50;;
71108;SDS011;59614;51.012;-1.648;2023-07-20T07:02:18;7.55;;;2.70;;
71108;SDS011;59614;51.012;-1.648;2023-07-20T07:04:44;5.05;;;2.10;;
71108;SDS011;59614;51.012;-1.648;2023-07-20T07:07:11;4.63;;;2.33;;
71108;SDS011;59614;51.012;-1.648;2023-07-20T07:09:38;3.70;;;2.20;;
71108;SDS011;59614;51.012;-1.648;2023-07-20T07:12:04;4.50;;;2.40;;
71108;SDS011;59614;51.012;-1.648;2023-07-20T07:14:30;6.15;;;2.40;;
71108;SDS011;59614;51.012;-1.648;2023-07-20T07:16:55;5.78;;;2.60;;
71108;SDS011;59614;51.012;-1.648;2023-07-20T07:19:21;8.68;;;2.60;;
71108;SDS011;59614;51.012;-1.648;2023-07-20T07:21:46;6.68;;;2.67;;
71108;SDS011;59614;51.012;-1.648;2023-07-20T07:24:12;3.95;;;2.20;;
71108;SDS011;59614;51.012;-1.648;2023-07-20T07:26:37;4.93;;;2.35;;
71108;SDS011;59614;51.012;-1.648;2023-07-20T07:29:03;3.40;;;2.00;;
71108;SDS011;59614;51.012;-1.648;2023-07-20T07:31:29;4.85;;;2.30;;
71108;SDS011;59614;51.012;-1.648;2023-07-20T07:33:55;5.70;;;2.10;;
71108;SDS011;59614;51.012;-1.648;2023-07-20T07:36:21;4.15;;;2.22;;
71108;SDS011;59614;51.012;-1.648;2023-07-20T07:38:49;4.63;;;2.08;;
71108;SDS011;59614;51.012;-1.648;2023-07-20T07:41:15;4.47;;;2.28;;
71108;SDS011;59614;51.012;-1.648;2023-07-20T07:43:40;4.03;;;2.30;;
71108;SDS011;59614;51.012;-1.648;2023-07-20T07:46:06;4.30;;;2.10;;
71108;SDS011;59614;51.012;-1.648;2023-07-20T07:48:31;4.78;;;2.20;;
71108;SDS011;59614;51.012;-1.648;2023-07-20T07:50:56;5.03;;;2.10;;
71108;SDS011;59614;51.012;-1.648;2023-07-20T07:53:22;9.13;;;2.50;;
71108;SDS011;59614;51.012;-1.648;2023-07-20T07:55:48;4.57;;;2.38;;
71108;SDS011;59614;51.012;-1.648;2023-07-20T07:58:13;3.47;;;1.90;;
71108;SDS011;59614;51.012;-1.648;2023-07-20T08:00:39;3.72;;;2.10;;
71108;SDS011;59614;51.012;-1.648;2023-07-20T08:03:06;6.00;;;2.17;;
71108;SDS011;59614;51.012;-1.648;2023-07-20T08:05:32;4.03;;;2.00;;
71108;SDS011;59614;51.012;-1.648;2023-07-20T08:07:58;7.55;;;2.10;;
71108;SDS011;59614;51.012;-1.648;2023-07-20T08:10:23;4.30;;;2.03;;
71108;SDS011;59614;51.012;-1.648;2023-07-20T08:12:49;4.43;;;2.10;;
71108;SDS011;59614;51.012;-1.648;2023-07-20T08:15:14;5.75;;;2.45;;
71108;SDS011;59614;51.012;-1.648;2023-07-20T08:17:41;3.70;;;2.10;;
71108;SDS011;59614;51.012;-1.648;2023-07-20T08:20:08;5.28;;;1.80;;
71108;SDS011;59614;51.012;-1.648;2023-07-20T08:22:37;3.65;;;2.00;;
71108;SDS011;59614;51.012;-1.648;2023-07-20T08:25:03;4.47;;;2.10;;
71108;SDS011;59614;51.012;-1.648;2023-07-20T08:27:29;5.78;;;1.90;;
71108;SDS011;59614;51.012;-1.648;2023-07-20T08:29:54;6.22;;;2.20;;
71108;SDS011;59614;51.012;-1.648;2023-07-20T08:32:20;2.90;;;1.85;;
71108;SDS011;59614;51.012;-1.648;2023-07-20T08:34:45;3.33;;;2.00;;
71108;SDS011;59614;51.012;-1.648;2023-07-20T08:37:11;4.03;;;2.00;;
71108;SDS011;59614;51.012;-1.648;2023-07-20T08:39:36;4.13;;;1.90;;
71108;SDS011;59614;51.012;-1.648;2023-07-20T08:42:02;6.93;;;1.73;;
71108;SDS011;59614;51.012;-1.648;2023-07-20T08:44:32;3.10;;;2.10;;
71108;SDS011;59614;51.012;-1.648;2023-07-20T08:46:58;4.30;;;1.90;;
71108;SDS011;59614;51.012;-1.648;2023-07-20T08:49:27;5.53;;;1.80;;
71108;SDS011;59614;51.012;-1.648;2023-07-20T08:51:52;3.25;;;1.77;;
71108;SDS011;59614;51.012;-1.648;2023-07-20T08:54:18;6.20;;;3.78;;
71108;SDS011;59614;51.012;-1.648;2023-07-20T08:56:44;6.93;;;3.70;;
71108;SDS011;59614;51.012;-1.648;2023-07-20T08:59:12;6.18;;;2.38;;
71108;SDS011;59614;51.012;-1.648;2023-07-20T09:01:40;3.33;;;1.92;;
71108;SDS011;59614;51.012;-1.648;2023-07-20T09:04:06;2.95;;;1.70;;
71108;SDS011;59614;51.012;-1.648;2023-07-20T09:06:32;2.03;;;1.60;;
71108;SDS011;59614;51.012;-1.648;2023-07-20T09:08:59;2.28;;;1.75;;
71108;SDS011;59614;51.012;-1.648;2023-07-20T09:11:24;3.33;;;2.00;;
71108;SDS011;59614;51.012;-1.648;2023-07-20T09:14:05;17.52;;;5.45;;
71108;SDS011;59614;51.012;-1.648;2023-07-20T09:16:31;11.48;;;3.10;;
71108;SDS011;59614;51.012;-1.648;2023-07-20T09:18:57;6.07;;;3.67;;
71108;SDS011;59614;51.012;-1.648;2023-07-20T09:21:23;5.13;;;1.80;;
71108;SDS011;59614;51.012;-1.648;2023-07-20T09:23:54;4.90;;;3.10;;
71108;SDS011;59614;51.012;-1.648;2023-07-20T09:26:21;4.07;;;2.10;;
71108;SDS011;59614;51.012;-1.648;2023-07-20T09:28:48;2.60;;;1.70;;
71108;SDS011;59614;51.012;-1.648;2023-07-20T09:31:18;2.88;;;1.83;;
71108;SDS011;59614;51.012;-1.648;2023-07-20T09:33:45;5.25;;;1.90;;
71108;SDS011;59614;51.012;-1.648;2023-07-20T09:36:12;6.00;;;1.90;;
71108;SDS011;59614;51.012;-1.648;2023-07-20T09:38:41;4.43;;;2.30;;
71108;SDS011;59614;51.012;-1.648;2023-07-20T09:41:07;9.63;;;4.93;;
71108;SDS011;59614;51.012;-1.648;2023-07-20T09:43:36;4.68;;;2.20;;
71108;SDS011;59614;51.012;-1.648;2023-07-20T09:46:01;2.45;;;1.80;;
71108;SDS011;59614;51.012;-1.648;2023-07-20T09:48:27;11.98;;;5.18;;
71108;SDS011;59614;51.012;-1.648;2023-07-20T09:50:53;16.58;;;10.50;;
71108;SDS011;59614;51.012;-1.648;2023-07-20T09:53:19;10.75;;;6.88;;
71108;SDS011;59614;51.012;-1.648;2023-07-20T09:55:48;5.65;;;3.65;;
71108;SDS011;59614;51.012;-1.648;2023-07-20T09:58:13;14.45;;;5.53;;
71108;SDS011;59614;51.012;-1.648;2023-07-20T10:00:41;6.32;;;3.85;;
71108;SDS011;59614;51.012;-1.648;2023-07-20T10:03:11;3.70;;;2.00;;
71108;SDS011;59614;51.012;-1.648;2023-07-20T10:05:42;5.18;;;2.00;;
71108;SDS011;59614;51.012;-1.648;2023-07-20T10:08:12;3.80;;;1.90;;
71108;SDS011;59614;51.012;-1.648;2023-07-20T10:10:38;4.87;;;2.80;;
71108;SDS011;59614;51.012;-1.648;2023-07-20T10:13:08;5.03;;;2.25;;
71108;SDS011;59614;51.012;-1.648;2023-07-20T10:15:43;2.45;;;1.60;;
71108;SDS011;59614;51.012;-1.648;2023-07-20T10:18:14;4.07;;;1.85;;
71108;SDS011;59614;51.012;-1.648;2023-07-20T10:20:51;3.85;;;1.85;;
71108;SDS011;59614;51.012;-1.648;2023-07-20T10:23:19;6.85;;;1.80;;
71108;SDS011;59614;51.012;-1.648;2023-07-20T10:25:46;3.00;;;1.73;;
71108;SDS011;59614;51.012;-1.648;2023-07-20T10:28:12;2.72;;;1.80;;
71108;SDS011;59614;51.012;-1.648;2023-07-20T10:30:39;3.63;;;1.70;;
71108;SDS011;59614;51.012;-1.648;2023-07-20T10:33:06;3.10;;;1.88;;
71108;SDS011;59614;51.012;-1.648;2023-07-20T10:35:53;8.40;;;3.25;;
71108;SDS011;59614;51.012;-1.648;2023-07-20T10:38:17;5.07;;;2.67;;
71108;SDS011;59614;51.012;-1.648;2023-07-20T10:40:43;4.57;;;2.10;;
71108;SDS011;59614;51.012;-1.648;2023-07-20T10:43:19;10.63;;;2.33;;
71108;SDS011;59614;51.012;-1.648;2023-07-20T10:45:48;3.58;;;1.77;;
71108;SDS011;59614;51.012;-1.648;2023-07-20T10:48:16;3.08;;;1.90;;
71108;SDS011;59614;51.012;-1.648;2023-07-20T10:53:38;3.88;;;1.88;;
71108;SDS011;59614;51.012;-1.648;2023-07-20T10:56:22;5.85;;;1.80;;
71108;SDS011;59614;51.012;-1.648;2023-07-20T10:58:51;4.65;;;2.00;;
71108;SDS011;59614;51.012;-1.648;2023-07-20T11:01:24;3.30;;;1.70;;
71108;SDS011;59614;51.012;-1.648;2023-07-20T11:03:56;6.13;;;1.80;;
71108;SDS011;59614;51.012;-1.648;2023-07-20T11:11:41;2.97;;;1.67;;
71108;SDS011;59614;51.012;-1.648;2023-07-20T11:14:09;5.03;;;1.75;;
71108;SDS011;59614;51.012;-1.648;2023-07-20T11:16:42;3.60;;;1.73;;
71108;SDS011;59614;51.012;-1.648;2023-07-20T11:19:18;2.30;;;1.52;;
71108;SDS011;59614;51.012;-1.648;2023-07-20T11:21:54;5.70;;;1.70;;
71108;SDS011;59614;51.012;-1.648;2023-07-20T11:24:22;5.20;;;1.73;;
71108;SDS011;59614;51.012;-1.648;2023-07-20T11:29:14;3.00;;;1.50;;
71108;SDS011;59614;51.012;-1.648;2023-07-20T11:31:45;2.80;;;1.60;;
71108;SDS011;59614;51.012;-1.648;2023-07-20T11:34:20;2.72;;;1.75;;
71108;SDS011;59614;51.012;-1.648;2023-07-20T11:36:47;2.95;;;1.60;;
71108;SDS011;59614;51.012;-1.648;2023-07-20T11:41:49;3.47;;;1.90;;
71108;SDS011;59614;51.012;-1.648;2023-07-20T11:44:16;3.77;;;2.10;;
71108;SDS011;59614;51.012;-1.648;2023-07-20T11:46:43;4.15;;;1.95;;
71108;SDS011;59614;51.012;-1.648;2023-07-20T11:49:12;5.10;;;1.98;;
71108;SDS011;59614;51.012;-1.648;2023-07-20T11:51:38;3.50;;;1.80;;
71108;SDS011;59614;51.012;-1.648;2023-07-20T11:54:05;3.45;;;2.10;;
71108;SDS011;59614;51.012;-1.648;2023-07-20T11:56:33;4.72;;;1.90;;
71108;SDS011;59614;51.012;-1.648;2023-07-20T11:58:59;3.97;;;1.90;;
71108;SDS011;59614;51.012;-1.648;2023-07-20T12:01:26;3.75;;;1.75;;
71108;SDS011;59614;51.012;-1.648;2023-07-20T12:04:00;5.00;;;2.15;;
71108;SDS011;59614;51.012;-1.648;2023-07-20T12:06:29;5.60;;;2.58;;
71108;SDS011;59614;51.012;-1.648;2023-07-20T12:08:56;4.97;;;2.30;;
71108;SDS011;59614;51.012;-1.648;2023-07-20T12:11:36;4.28;;;1.85;;
71108;SDS011;59614;51.012;-1.648;2023-07-20T12:14:03;4.22;;;2.15;;
71108;SDS011;59614;51.012;-1.648;2023-07-20T12:16:33;3.90;;;1.80;;
71108;SDS011;59614;51.012;-1.648;2023-07-20T12:19:02;3.47;;;1.85;;
71108;SDS011;59614;51.012;-1.648;2023-07-20T12:21:29;6.38;;;2.08;;
71108;SDS011;59614;51.012;-1.648;2023-07-20T12:23:56;4.13;;;1.87;;
71108;SDS011;59614;51.012;-1.648;2023-07-20T12:28:50;4.43;;;1.80;;
71108;SDS011;59614;51.012;-1.648;2023-07-20T12:31:15;5.72;;;1.70;;
71108;SDS011;59614;51.012;-1.648;2023-07-20T12:33:41;2.63;;;1.63;;
71108;SDS011;59614;51.012;-1.648;2023-07-20T12:36:07;4.03;;;1.70;;
71108;SDS011;59614;51.012;-1.648;2023-07-20T12:38:33;4.97;;;1.90;;
71108;SDS011;59614;51.012;-1.648;2023-07-20T12:41:00;3.40;;;1.92;;
71108;SDS011;59614;51.012;-1.648;2023-07-20T12:45:51;5.30;;;1.98;;
71108;SDS011;59614;51.012;-1.648;2023-07-20T12:48:17;3.42;;;1.75;;
71108;SDS011;59614;51.012;-1.648;2023-07-20T12:50:42;3.92;;;1.88;;
71108;SDS011;59614;51.012;-1.648;2023-07-20T12:53:08;4.40;;;1.77;;
71108;SDS011;59614;51.012;-1.648;2023-07-20T12:55:33;5.20;;;1.70;;
71108;SDS011;59614;51.012;-1.648;2023-07-20T12:57:59;2.83;;;1.65;;
71108;SDS011;59614;51.012;-1.648;2023-07-20T13:00:24;4.18;;;1.70;;
71108;SDS011;59614;51.012;-1.648;2023-07-20T13:02:50;3.25;;;1.48;;
71108;SDS011;59614;51.012;-1.648;2023-07-20T13:05:16;3.60;;;1.58;;
71108;SDS011;59614;51.012;-1.648;2023-07-20T13:07:41;4.10;;;1.60;;
71108;SDS011;59614;51.012;-1.648;2023-07-20T13:10:07;5.20;;;1.70;;
71108;SDS011;59614;51.012;-1.648;2023-07-20T13:12:34;2.97;;;1.75;;
71108;SDS011;59614;51.012;-1.648;2023-07-20T13:15:04;3.83;;;1.35;;
71108;SDS011;59614;51.012;-1.648;2023-07-20T13:17:37;5.03;;;1.90;;
71108;SDS011;59614;51.012;-1.648;2023-07-20T13:20:04;4.07;;;1.70;;
71108;SDS011;59614;51.012;-1.648;2023-07-20T13:22:31;6.72;;;2.00;;
71108;SDS011;59614;51.012;-1.648;2023-07-20T13:24:57;4.30;;;1.58;;
71108;SDS011;59614;51.012;-1.648;2023-07-20T13:27:23;3.03;;;1.80;;
71108;SDS011;59614;51.012;-1.648;2023-07-20T13:29:50;3.35;;;1.70;;
71108;SDS011;59614;51.012;-1.648;2023-07-20T13:32:16;4.55;;;1.67;;
71108;SDS011;59614;51.012;-1.648;2023-07-20T13:34:43;4.22;;;1.83;;
71108;SDS011;59614;51.012;-1.648;2023-07-20T13:37:08;9.00;;;2.00;;
71108;SDS011;59614;51.012;-1.648;2023-07-20T13:39:34;3.65;;;1.67;;
71108;SDS011;59614;51.012;-1.648;2023-07-20T13:41:59;5.28;;;1.70;;
71108;SDS011;59614;51.012;-1.648;2023-07-20T13:44:29;2.65;;;1.67;;
71108;SDS011;59614;51.012;-1.648;2023-07-20T13:46:54;2.92;;;1.63;;
71108;SDS011;59614;51.012;-1.648;2023-07-20T13:49:19;3.13;;;1.60;;
71108;SDS011;59614;51.012;-1.648;2023-07-20T13:51:45;3.65;;;1.80;;
71108;SDS011;59614;51.012;-1.648;2023-07-20T13:54:10;3.42;;;1.67;;
71108;SDS011;59614;51.012;-1.648;2023-07-20T13:56:37;3.35;;;1.58;;
71108;SDS011;59614;51.012;-1.648;2023-07-20T13:59:02;2.92;;;1.63;;
71108;SDS011;59614;51.012;-1.648;2023-07-20T14:01:28;3.47;;;1.70;;
71108;SDS011;59614;51.012;-1.648;2023-07-20T14:03:55;9.13;;;1.85;;
71108;SDS011;59614;51.012;-1.648;2023-07-20T14:06:21;3.25;;;1.90;;
71108;SDS011;59614;51.012;-1.648;2023-07-20T14:08:47;6.03;;;1.77;;
71108;SDS011;59614;51.012;-1.648;2023-07-20T14:11:13;3.67;;;1.48;;
71108;SDS011;59614;51.012;-1.648;2023-07-20T14:13:39;4.97;;;1.77;;
71108;SDS011;59614;51.012;-1.648;2023-07-20T14:16:05;2.47;;;1.60;;
71108;SDS011;59614;51.012;-1.648;2023-07-20T14:18:30;2.50;;;1.80;;
71108;SDS011;59614;51.012;-1.648;2023-07-20T14:20:56;3.55;;;1.90;;
71108;SDS011;59614;51.012;-1.648;2023-07-20T14:23:22;5.03;;;1.60;;
71108;SDS011;59614;51.012;-1.648;2023-07-20T14:25:47;3.67;;;1.70;;
71108;SDS011;59614;51.012;-1.648;2023-07-20T14:28:13;8.85;;;1.92;;
71108;SDS011;59614;51.012;-1.648;2023-07-20T14:30:39;4.28;;;1.90;;
71108;SDS011;59614;51.012;-1.648;2023-07-20T14:33:05;3.72;;;1.83;;
71108;SDS011;59614;51.012;-1.648;2023-07-20T14:35:30;5.55;;;2.10;;
71108;SDS011;59614;51.012;-1.648;2023-07-20T14:37:56;2.65;;;1.80;;
71108;SDS011;59614;51.012;-1.648;2023-07-20T14:40:21;3.08;;;1.95;;
71108;SDS011;59614;51.012;-1.648;2023-07-20T14:42:47;2.80;;;1.85;;
71108;SDS011;59614;51.012;-1.648;2023-07-20T14:45:12;3.83;;;1.85;;
71108;SDS011;59614;51.012;-1.648;2023-07-20T14:47:37;3.42;;;1.80;;
71108;SDS011;59614;51.012;-1.648;2023-07-20T14:50:03;3.33;;;2.00;;
71108;SDS011;59614;51.012;-1.648;2023-07-20T14:52:29;5.15;;;1.85;;
71108;SDS011;59614;51.012;-1.648;2023-07-20T14:54:55;5.13;;;1.63;;
71108;SDS011;59614;51.012;-1.648;2023-07-20T14:57:21;3.60;;;1.70;;
71108;SDS011;59614;51.012;-1.648;2023-07-20T15:02:14;3.33;;;1.50;;
71108;SDS011;59614;51.012;-1.648;2023-07-20T15:04:46;4.55;;;2.05;;